Flight Track Log - Related Links

Times and Time Zones

All times are in EDT time to prevent confusion due to time zone crossing. See the SWA1386 flight status page for this flight to view local times or setup timezone preferences in your user account.

Time Position Orientation Groundspeed Altitude Reporting Facility
EDT Latitude Longitude Course Direction KTS MPH feet Rate Location/Type
Tue 12:38:26 PM 41.3919 -81.8839 187° South 140 161 1,900  Level Cleveland Center
Tue 12:38:57 PM 41.3625 -81.8889 150° Southeast 206 237 2,800 2,151 Climbing Cleveland Center
Tue 12:40:12 PM 41.3006 -81.8408 110° East 220 253 5,700 2,400 Climbing Cleveland Center
Tue 12:41:12 PM 41.2744 -81.7436 112° Southeast 260 299 8,200 2,500 Climbing Cleveland Center
Tue 12:42:12 PM 41.2361 -81.6158 112° Southeast 326 375 10,700 3,000 Climbing Cleveland Center
Tue 12:43:12 PM 41.1997 -81.4939 114° Southeast 345 397 14,200 2,750 Climbing Cleveland Center
Tue 12:44:12 PM 41.1608 -81.3775 113° Southeast 367 422 16,200 2,300 Climbing Cleveland Center
Tue 12:45:12 PM 41.1181 -81.2419 150° Southeast 391 450 18,800 2,400 Climbing Cleveland Center
Tue 12:46:12 PM 41.0183 -81.1667 166° South 370 426 21,000 2,150 Climbing Cleveland Center
Tue 12:47:12 PM 40.9058 -81.1297 165° South 376 433 23,100 2,100 Climbing Cleveland Center
Tue 12:48:12 PM 40.7936 -81.0906 164° South 402 463 25,200 1,950 Climbing Cleveland Center
Tue 12:49:12 PM 40.6811 -81.0486 165° South 420 483 27,000 1,600 Climbing Cleveland Center
Tue 12:50:12 PM 40.5625 -81.0067 164° South 427 491 28,400 1,000 Climbing Cleveland Center
Tue 12:51:12 PM 40.4417 -80.9622 138° Southeast 437 503 29,000 300 Climbing Cleveland Center
Tue 12:52:12 PM 40.3419 -80.8444 128° Southeast 450 518 29,000  Level Cleveland Center
Tue 12:53:12 PM 40.2589 -80.7028 127° Southeast 470 541 29,000  Level Cleveland Center
Tue 12:54:12 PM 40.1756 -80.5586 129° Southeast 475 547 29,000  Level Cleveland Center
Tue 12:55:12 PM 40.0858 -80.4147 127° Southeast 497 572 29,000  Level Cleveland Center
Tue 12:56:12 PM 40.0042 -80.2714 115° Southeast 497 572 29,000  Level Cleveland Center
Tue 12:57:12 PM 39.9453 -80.1064 108° East 492 566 29,000  Level Cleveland Center
Tue 12:58:12 PM 39.9028 -79.9364 111° Southeast 492 566 29,000  Level Cleveland Center
Tue 12:59:12 PM 39.8536 -79.7664 110° East 492 566 29,000  Level Cleveland Center
Tue 01:00:20 PM 39.8019 -79.5781 110° East 496 571 29,000  Level Washington Center
Tue 01:01:21 PM 39.7533 -79.4081 110° East 496 571 29,000 -984 Level Washington Center
Tue 01:02:22 PM 39.7064 -79.2408 110° East 496 571 27,000 -1,983 Descending Washington Center
Tue 01:03:22 PM 39.6611 -79.0797 106° East 496 571 25,000 -1,100 Descending Washington Center
Tue 01:04:22 PM 39.6333 -78.9544 108° East 482 555 24,800 -661 Descending Washington Center
Tue 01:05:20 PM 39.5903 -78.7800 106° East 467 537 23,700 -1,261 Descending Washington Center
Tue 01:06:21 PM 39.5567 -78.6331 106° East 444 511 22,300 -1,721 Descending Washington Center
Tue 01:07:22 PM 39.5247 -78.4892 104° East 425 489 20,200 -2,067 Descending Washington Center
Tue 01:08:20 PM 39.4967 -78.3481 106° East 412 474 18,200 -2,034 Descending Washington Center
Tue 01:09:20 PM 39.4664 -78.2153 106° East 400 460 16,200 -1,587 Descending Washington Center
Tue 01:10:21 PM 39.4378 -78.0878 106° East 380 437 15,000 -595 Descending Washington Center
Tue 01:11:21 PM 39.4092 -77.9608 103° East 375 432 15,000 -149 Level Washington Center
Tue 01:12:22 PM 39.3867 -77.8311 82° East 370 426 14,700 -694 Descending Washington Center
Tue 01:13:22 PM 39.4014 -77.7025 79° East 359 413 13,600 -1,109 Descending Washington Center
Tue 01:14:21 PM 39.4203 -77.5794 74° East 347 399 12,500 -1,008 Descending Washington Center
Tue 01:15:21 PM 39.4469 -77.4619 63° Northeast 347 399 11,600 -744 Descending Washington Center
Tue 01:16:22 PM 39.4861 -77.3636 82° East 332 382 11,000 -279 Descending Washington Center
Tue 01:17:30 PM 39.5000 -77.2333 90° East 294 338 11,000  Level Potomac TRACON
Tue 01:18:31 PM 39.5000 -77.1167 90° East 301 346 11,000 -157 Level Potomac TRACON
Tue 01:19:25 PM 39.5000 -77.0167 78° East 300 345 10,700 -895 Descending Potomac TRACON
Tue 01:20:25 PM 39.5167 -76.9167 78° East 291 335 9,300 -1,350 Descending Potomac TRACON
Tue 01:21:25 PM 39.5333 -76.8167 78° East 289 333 8,000 -650 Descending Potomac TRACON
Tue 01:22:25 PM 39.5500 -76.7167 105° East 280 322 8,000 -595 Level Potomac TRACON
Tue 01:23:26 PM 39.5333 -76.6333 113° Southeast 289 333 6,800 -1,041 Descending Potomac TRACON
Tue 01:24:26 PM 39.5000 -76.5333 134° Southeast 287 330 5,900 -1,048 Descending Potomac TRACON
Tue 01:25:32 PM 39.4500 -76.4667 159° South 264 304 4,600 -950 Descending Potomac TRACON
Tue 01:26:26 PM 39.3833 -76.4333 180° South 252 290 4,000 -889 Descending Potomac TRACON
Tue 01:27:20 PM 39.3333 -76.4333 191° South 239 275 3,000 -496 Descending Potomac TRACON
Tue 01:28:27 PM 39.2667 -76.4500 201° Southwest 233 268 3,000 -496 Level Potomac TRACON
Tue 01:29:21 PM 39.2000 -76.4833 201° Southwest 236 272 2,000 -1,111 Descending Potomac TRACON

Login

Don't have an account? Register now (free) for customized features, flight alerts, and more!